Time;durP1;ratioP1;P1;durP2;ratioP2;P2;SDS_P1;SDS_P2;PMS_P1;PMS_P2;Temp;Humidity;BMP_temperature;BMP_pressure;BME280_temperature;BME280_humidity;BME280_pressure;Samples;Min_cycle;Max_cycle;Signal;HPM_P1;HPM_P2
2022/08/21 00:01:12;;;;;;;;;6.00;6.00;;;;;25.36;38.21;101273.06;5044723;28;44757;-59
2022/08/21 00:03:37;;;;;;;;;5.75;4.00;;;;;25.36;38.73;101269.56;5024303;28;45529;-56
2022/08/21 00:06:03;;;;;;;;;6.75;6.00;;;;;25.36;38.32;101272.22;5017680;28;45437;-57
2022/08/21 00:08:28;;;;;;;;;4.00;4.00;;;;;25.35;38.81;101263.44;5015536;28;48158;-60
2022/08/21 00:10:53;;;;;;;;;6.50;5.00;;;;;25.35;38.74;101262.56;5016889;28;45471;-62
2022/08/21 00:13:19;;;;;;;;;4.00;4.00;;;;;25.28;39.04;101257.69;5016805;28;45976;-60
2022/08/21 00:15:46;;;;;;;;;6.00;4.00;;;;;25.25;38.98;101265.00;5035541;28;45918;-62
2022/08/21 00:18:12;;;;;;;;;4.50;4.00;;;;;25.20;38.98;101254.72;5039440;28;45407;-58
2022/08/21 00:20:40;;;;;;;;;5.00;4.00;;;;;25.21;39.10;101256.41;5037110;28;45392;-55
2022/08/21 00:23:06;;;;;;;;;3.50;3.25;;;;;25.22;38.91;101258.09;5047357;28;45220;-56
2022/08/21 00:25:32;;;;;;;;;6.25;5.00;;;;;25.23;38.84;101248.38;5045300;28;44842;-60
2022/08/21 00:27:57;;;;;;;;;3.50;3.50;;;;;25.25;38.56;101246.44;5037296;28;45785;-61
2022/08/21 00:30:25;;;;;;;;;4.75;4.00;;;;;25.26;38.48;101248.13;5029578;28;45687;-58
2022/08/21 00:32:52;;;;;;;;;6.00;4.50;;;;;25.25;39.33;101246.44;5017448;28;45385;-62
2022/08/21 00:35:22;;;;;;;;;2.25;2.25;;;;;25.27;39.10;101248.03;5039876;28;45649;-58
2022/08/21 00:37:48;;;;;;;;;4.50;4.50;;;;;25.25;38.97;101246.44;5046231;28;45466;-60
2022/08/21 00:40:17;;;;;;;;;5.00;5.00;;;;;25.21;39.39;101245.78;5028500;28;45401;-60
2022/08/21 00:42:43;;;;;;;;;3.75;3.75;;;;;25.15;39.26;101240.94;5038720;28;44667;-60
2022/08/21 00:45:10;;;;;;;;;5.25;3.00;;;;;25.13;38.71;101243.69;5042119;28;45666;-61
2022/08/21 00:47:36;;;;;;;;;4.00;4.00;;;;;25.06;39.10;101237.09;5041304;28;45306;-61
2022/08/21 00:50:04;;;;;;;;;3.25;3.25;;;;;25.08;39.11;101244.97;5031402;28;45315;-60
2022/08/21 00:52:33;;;;;;;;;2.75;2.75;;;;;25.08;39.45;101250.28;5022889;28;45470;-60
2022/08/21 00:55:00;;;;;;;;;5.00;4.00;;;;;25.07;38.98;101243.28;5023895;28;45531;-61
2022/08/21 00:57:47;;;;;;;;;3.00;3.00;;;;;25.03;39.17;101231.16;5019100;28;46204;-61
2022/08/21 01:00:18;;;;;;;;;5.00;2.50;;;;;24.99;39.29;101236.66;5032538;28;45549;-61
2022/08/21 01:02:44;;;;;;;;;3.25;3.25;;;;;24.99;39.66;101236.66;5038037;28;45383;-61
2022/08/21 01:05:10;;;;;;;;;5.00;2.25;;;;;24.94;39.43;101238.78;5060943;28;44774;-61
2022/08/21 01:07:37;;;;;;;;;2.00;2.00;;;;;24.93;39.42;101239.75;5054166;28;47798;-59
2022/08/21 01:10:05;;;;;;;;;2.00;2.00;;;;;24.93;39.90;101236.22;5032651;28;45854;-61
2022/08/21 01:12:32;;;;;;;;;2.25;1.25;;;;;24.95;39.55;101242.28;5016938;28;45277;-60
2022/08/21 01:14:58;;;;;;;;;4.00;3.00;;;;;24.95;39.42;101240.50;5031753;28;45325;-61
2022/08/21 01:17:25;;;;;;;;;4.75;3.00;;;;;24.98;39.42;101242.91;5015351;28;46210;-61
2022/08/21 01:19:51;;;;;;;;;4.00;2.50;;;;;25.01;39.63;101240.06;5023617;28;45403;-59
2022/08/21 01:22:16;;;;;;;;;4.00;2.25;;;;;25.04;39.78;101232.84;5036061;28;45351;-60
2022/08/21 01:24:41;;;;;;;;;2.00;2.00;;;;;25.06;39.27;101239.75;5038413;28;45504;-57
2022/08/21 01:27:07;;;;;;;;;4.00;2.25;;;;;25.08;39.75;101239.66;5039347;28;46298;-56
2022/08/21 01:29:38;;;;;;;;;2.00;2.00;;;;;25.07;39.88;101246.75;5048802;28;45492;-61
2022/08/21 01:32:09;;;;;;;;;4.50;3.00;;;;;25.06;39.52;101238.91;5041939;28;44775;-53
2022/08/21 01:34:38;;;;;;;;;3.00;2.25;;;;;25.05;39.73;101245.16;5044555;28;44706;-56
2022/08/21 01:37:04;;;;;;;;;3.00;3.00;;;;;25.05;39.38;101251.31;5036761;28;45449;-57
2022/08/21 01:39:29;;;;;;;;;3.25;2.25;;;;;25.06;39.96;101252.16;5022313;28;45362;-61
2022/08/21 01:41:55;;;;;;;;;3.50;3.00;;;;;25.07;39.32;101253.88;5038891;28;45229;-61
2022/08/21 01:44:22;;;;;;;;;2.75;2.75;;;;;25.07;39.57;101259.19;5037685;28;45347;-61
2022/08/21 01:46:48;;;;;;;;;4.25;3.00;;;;;25.08;39.73;101251.09;5034903;28;45290;-61
2022/08/21 01:49:15;;;;;;;;;4.50;3.00;;;;;25.09;39.79;101243.97;5030316;28;45719;-61
2022/08/21 01:51:41;;;;;;;;;3.25;2.00;;;;;25.09;39.79;101249.28;5015819;28;45394;-59
2022/08/21 01:54:06;;;;;;;;;4.50;3.00;;;;;25.09;39.54;101254.59;5026827;28;45590;-60
2022/08/21 01:56:40;;;;;;;;;3.00;3.00;;;;;25.03;39.31;101244.41;5037705;28;46154;-61
2022/08/21 01:59:06;;;;;;;;;2.00;2.00;;;;;24.98;39.92;101250.03;5018628;28;45304;-62
2022/08/21 02:01:31;;;;;;;;;4.50;3.25;;;;;24.95;39.67;101248.44;5028725;28;45437;-61
2022/08/21 02:03:56;;;;;;;;;2.75;2.75;;;;;24.93;39.97;101244.19;5013865;28;45481;-58
2022/08/21 02:06:22;;;;;;;;;3.00;2.25;;;;;24.92;39.69;101240.69;5014968;28;46098;-61
2022/08/21 02:08:48;;;;;;;;;4.75;2.75;;;;;24.92;39.82;101240.69;5015073;28;45415;-61
2022/08/21 02:11:13;;;;;;;;;6.25;3.00;;;;;24.94;40.25;101241.44;5034346;28;45319;-61
2022/08/21 02:13:39;;;;;;;;;5.50;3.25;;;;;24.94;39.71;101237.94;5035210;28;45494;-61
2022/08/21 02:16:04;;;;;;;;;2.00;2.00;;;;;24.94;39.86;101236.16;5049353;28;46866;-60
2022/08/21 02:18:30;;;;;;;;;4.00;2.00;;;;;24.96;39.61;101230.72;5054737;28;44750;-61
2022/08/21 02:20:55;;;;;;;;;4.50;3.75;;;;;24.93;39.81;101221.19;5019335;28;45194;-60
2022/08/21 02:23:20;;;;;;;;;2.50;2.50;;;;;24.91;40.40;101215.13;5028179;28;45561;-62
2022/08/21 02:25:46;;;;;;;;;1.25;1.00;;;;;24.91;39.75;101228.38;5022843;28;46250;-52
2022/08/21 02:28:14;;;;;;;;;4.00;3.00;;;;;24.84;40.25;101227.97;5023034;28;45292;-60
2022/08/21 02:30:43;;;;;;;;;2.25;2.25;;;;;24.77;40.42;101221.38;5062920;28;45427;-59
2022/08/21 02:33:10;;;;;;;;;3.00;2.00;;;;;24.72;40.16;101225.28;5053034;28;45856;-58
2022/08/21 02:35:37;;;;;;;;;2.25;2.25;;;;;24.64;40.13;101223.13;5038553;28;47446;-59
2022/08/21 02:38:08;;;;;;;;;2.00;2.00;;;;;24.57;40.76;101220.03;5038409;28;45813;-61
2022/08/21 02:40:37;;;;;;;;;1.00;1.00;;;;;24.51;40.83;101220.44;5021178;28;45501;-57
2022/08/21 02:43:04;;;;;;;;;4.00;2.00;;;;;24.51;40.83;101226.59;5018553;28;45391;-61
2022/08/21 02:45:30;;;;;;;;;4.00;3.00;;;;;24.49;40.73;101225.00;5017558;28;46476;-60
2022/08/21 02:47:59;;;;;;;;;4.25;2.00;;;;;24.50;40.54;101229.34;5017831;28;45403;-60
2022/08/21 02:50:30;;;;;;;;;5.00;2.50;;;;;24.48;40.53;101231.25;5031942;28;45243;-60
2022/08/21 02:52:56;;;;;;;;;2.50;2.00;;;;;24.48;40.65;101228.59;5036899;28;45905;-61
2022/08/21 02:55:23;;;;;;;;;2.00;2.00;;;;;24.55;40.90;101237.81;5037462;28;45618;-57
2022/08/21 02:57:49;;;;;;;;;2.25;2.00;;;;;24.57;40.96;101233.28;5037956;28;45721;-54
2022/08/21 03:00:15;;;;;;;;;3.25;2.00;;;;;24.60;41.05;101230.44;5024981;28;45416;-57
2022/08/21 03:02:41;;;;;;;;;3.75;2.50;;;;;24.62;40.90;101228.53;5018297;28;45601;-53
2022/08/21 03:05:09;;;;;;;;;4.00;1.00;;;;;24.66;40.88;101229.16;5017556;28;45260;-53
2022/08/21 03:07:36;;;;;;;;;2.50;2.50;;;;;24.68;40.55;101227.28;5017935;28;45747;-54
2022/08/21 03:10:03;;;;;;;;;3.75;2.25;;;;;24.67;40.43;101231.72;5027421;28;45396;-55
2022/08/21 03:12:29;;;;;;;;;3.00;3.00;;;;;24.66;40.51;101231.81;5043357;28;45391;-59
2022/08/21 03:14:54;;;;;;;;;2.25;2.25;;;;;24.64;40.71;101231.06;5066655;28;45437;-54
2022/08/21 03:17:19;;;;;;;;;3.00;3.00;;;;;24.62;40.43;101233.84;5036773;28;45385;-56
2022/08/21 03:19:45;;;;;;;;;3.25;2.00;;;;;24.57;40.30;101224.50;5030994;28;45510;-59
2022/08/21 03:22:10;;;;;;;;;2.75;2.00;;;;;24.48;40.43;101225.94;5017813;28;45530;-58
2022/08/21 03:24:35;;;;;;;;;3.00;3.00;;;;;24.46;40.58;101233.13;5017411;28;45309;-58
2022/08/21 03:27:01;;;;;;;;;4.00;2.00;;;;;24.44;41.15;101216.50;5017869;28;45395;-56
2022/08/21 03:29:26;;;;;;;;;5.75;3.00;;;;;24.53;40.63;101221.16;5020533;28;46112;-57
2022/08/21 03:31:53;;;;;;;;;4.00;2.00;;;;;24.57;41.03;101214.72;5037939;28;45286;-55
2022/08/21 03:34:19;;;;;;;;;4.50;3.00;;;;;24.58;40.87;101205.81;5037122;28;46577;-55
2022/08/21 03:36:44;;;;;;;;;3.50;2.25;;;;;24.61;40.48;101210.06;5037243;28;45284;-57
2022/08/21 03:39:10;;;;;;;;;2.00;2.00;;;;;24.56;40.27;101210.38;5034198;28;48634;-57
2022/08/21 03:41:35;;;;;;;;;2.00;2.00;;;;;24.50;40.53;101203.69;5036984;28;45548;-54
2022/08/21 03:44:00;;;;;;;;;2.75;2.75;;;;;24.42;41.17;101189.28;5036628;28;45334;-59
2022/08/21 03:46:26;;;;;;;;;3.75;3.00;;;;;24.38;41.21;101184.16;5037234;28;45432;-60
2022/08/21 03:48:52;;;;;;;;;2.25;2.25;;;;;24.36;41.11;101187.88;5038590;28;48593;-60
2022/08/21 03:51:18;;;;;;;;;3.00;3.00;;;;;24.33;41.10;101183.59;5047870;28;45208;-54
2022/08/21 03:53:44;;;;;;;;;3.00;3.00;;;;;24.31;41.28;101184.66;5048476;28;46124;-58
2022/08/21 03:56:10;;;;;;;;;3.50;3.50;;;;;24.29;41.08;101183.91;5062443;28;45035;-60
2022/08/21 03:58:38;;;;;;;;;3.25;2.00;;;;;24.26;40.92;101182.31;5027969;28;45440;-59
2022/08/21 04:01:06;;;;;;;;;3.00;3.00;;;;;24.31;41.19;101188.16;5031570;28;45632;-59
2022/08/21 04:03:34;;;;;;;;;3.00;3.00;;;;;24.34;41.19;101177.38;5036098;28;46198;-60
2022/08/21 04:05:59;;;;;;;;;3.75;3.00;;;;;24.37;40.85;101179.81;5036872;28;45237;-60
2022/08/21 04:08:25;;;;;;;;;3.75;3.00;;;;;24.42;41.30;101178.69;5036030;28;45422;-59
2022/08/21 04:10:53;;;;;;;;;3.00;3.00;;;;;24.45;40.76;101178.44;5024012;28;45237;-58
2022/08/21 04:13:19;;;;;;;;;3.75;3.00;;;;;24.40;40.71;101170.81;5016799;28;46142;-58
2022/08/21 04:15:45;;;;;;;;;3.75;2.50;;;;;24.30;41.29;101170.59;5016462;28;45829;-58
2022/08/21 04:18:10;;;;;;;;;3.00;3.00;;;;;24.20;41.09;101169.47;5016668;28;45748;-57
2022/08/21 04:20:35;;;;;;;;;5.75;3.00;;;;;24.07;41.72;101180.91;5032286;28;45779;-57
2022/08/21 04:23:02;;;;;;;;;5.50;3.50;;;;;23.98;41.37;101184.13;5040935;28;47223;-56
2022/08/21 04:25:28;;;;;;;;;5.50;4.00;;;;;23.90;41.79;101189.91;5040362;28;45206;-58
2022/08/21 04:27:54;;;;;;;;;4.00;4.00;;;;;23.84;41.92;101190.28;5037495;28;45371;-57
2022/08/21 04:30:19;;;;;;;;;5.25;3.50;;;;;23.81;42.23;101211.66;5028786;28;45567;-57
2022/08/21 04:32:46;;;;;;;;;5.75;4.00;;;;;23.77;42.06;101205.69;5016652;28;45567;-58
2022/08/21 04:35:14;;;;;;;;;4.00;4.00;;;;;23.69;42.29;101213.28;5016314;28;45721;-57
2022/08/21 04:37:39;;;;;;;;;5.00;3.50;;;;;23.62;42.18;101212.81;5016558;28;45324;-57
2022/08/21 04:40:06;;;;;;;;;4.75;4.00;;;;;23.56;42.37;101214.97;5020077;28;45872;-59
2022/08/21 04:42:32;;;;;;;;;4.75;4.00;;;;;23.46;42.52;101212.91;5036013;28;47214;-58
2022/08/21 04:44:58;;;;;;;;;4.50;4.00;;;;;23.42;43.12;101218.50;5027125;28;45789;-57
2022/08/21 04:47:23;;;;;;;;;3.00;3.00;;;;;23.37;43.08;101228.53;5015947;28;45237;-58
2022/08/21 04:49:49;;;;;;;;;4.50;3.00;;;;;23.34;43.05;101212.84;5018756;28;45356;-59
2022/08/21 04:52:19;;;;;;;;;6.00;3.00;;;;;23.35;43.17;101218.03;5035484;28;45458;-56
2022/08/21 04:54:47;;;;;;;;;4.75;4.00;;;;;23.35;43.44;101215.38;5038500;28;45368;-56
2022/08/21 04:57:14;;;;;;;;;4.75;4.25;;;;;23.29;43.18;101216.59;5017933;28;45369;-54
2022/08/21 04:59:45;;;;;;;;;3.25;3.25;;;;;23.27;43.25;101222.94;5025373;28;45443;-57
2022/08/21 05:02:12;;;;;;;;;5.00;4.00;;;;;23.25;43.29;101222.16;5058847;28;46421;-57
2022/08/21 05:04:43;;;;;;;;;3.25;3.25;;;;;23.19;43.34;101223.41;5045773;28;45821;-57
2022/08/21 05:07:18;;;;;;;;;0.50;0.50;;;;;23.12;43.50;101225.53;5050561;28;45395;-57
2022/08/21 05:09:44;;;;;;;;;4.50;3.25;;;;;23.10;43.61;101227.41;5059515;28;44833;-58
2022/08/21 05:12:10;;;;;;;;;9.75;5.00;;;;;23.06;43.37;101225.91;5026039;28;46085;-58
2022/08/21 05:14:36;;;;;;;;;4.00;4.00;;;;;23.04;43.53;101222.50;5025954;28;45343;-60
2022/08/21 05:17:02;;;;;;;;;4.25;4.00;;;;;23.06;43.66;101220.63;5024847;28;45475;-57
2022/08/21 05:19:27;;;;;;;;;3.00;2.00;;;;;23.07;43.25;101213.53;5032979;28;45750;-59
2022/08/21 05:21:53;;;;;;;;;5.25;3.00;;;;;23.05;43.33;101213.63;5038447;28;45994;-58
2022/08/21 05:24:18;;;;;;;;;3.50;3.50;;;;;23.04;43.33;101217.22;5055797;28;45463;-57
2022/08/21 05:26:44;;;;;;;;;5.50;4.00;;;;;23.01;43.52;101222.69;5045558;28;45328;-58
2022/08/21 05:29:10;;;;;;;;;2.00;2.00;;;;;22.97;43.49;101226.47;5043448;28;45269;-56
2022/08/21 05:31:36;;;;;;;;;3.00;3.00;;;;;22.91;43.43;101216.25;5042326;28;46379;-58
2022/08/21 05:34:02;;;;;;;;;3.75;3.75;;;;;22.91;43.80;101222.41;5042813;28;45711;-58
2022/08/21 05:36:27;;;;;;;;;5.00;3.00;;;;;22.90;43.66;101219.81;5040927;28;45344;-58
2022/08/21 05:38:52;;;;;;;;;5.00;3.00;;;;;22.84;43.87;101215.75;5032258;28;45257;-58
2022/08/21 05:41:18;;;;;;;;;4.25;3.00;;;;;22.80;43.96;101215.09;5017215;28;46335;-57
2022/08/21 05:43:43;;;;;;;;;4.25;3.00;;;;;22.79;43.86;101215.19;5015594;28;45515;-58
2022/08/21 05:46:08;;;;;;;;;4.25;3.25;;;;;22.78;44.30;101216.13;5015242;28;45384;-58
2022/08/21 05:48:36;;;;;;;;;5.00;4.50;;;;;22.75;43.87;101208.38;5023290;28;45602;-57
2022/08/21 05:51:09;;;;;;;;;5.50;3.00;;;;;22.75;44.32;101216.28;5047952;28;46187;-57
2022/08/21 05:53:36;;;;;;;;;4.00;3.25;;;;;22.72;44.08;101214.69;5048152;28;45432;-57
2022/08/21 05:56:03;;;;;;;;;5.25;4.00;;;;;22.67;44.05;101214.09;5054299;28;45189;-57
2022/08/21 05:58:30;;;;;;;;;3.00;3.00;;;;;22.67;44.23;101220.25;5043048;28;45320;-57
2022/08/21 06:00:58;;;;;;;;;4.25;3.75;;;;;22.68;44.20;101218.44;5034246;28;45381;-56
2022/08/21 06:03:27;;;;;;;;;3.00;3.00;;;;;22.70;44.30;101227.13;5026275;28;45883;-58
2022/08/21 06:05:53;;;;;;;;;3.25;3.25;;;;;22.67;44.31;101219.38;5042017;28;44753;-57
2022/08/21 06:08:19;;;;;;;;;4.00;3.75;;;;;22.73;44.04;101220.81;5042941;28;44956;-59
2022/08/21 06:10:47;;;;;;;;;5.25;4.00;;;;;22.75;44.54;101221.59;5042357;28;45445;-59
2022/08/21 06:13:14;;;;;;;;;5.00;4.50;;;;;22.78;44.08;101221.41;5038558;28;45434;-59
2022/08/21 06:15:39;;;;;;;;;4.25;4.25;;;;;22.81;44.00;101230.00;5038899;28;45310;-59
2022/08/21 06:18:05;;;;;;;;;5.50;4.00;;;;;22.91;43.88;101232.09;5035855;28;45578;-59
2022/08/21 06:20:31;;;;;;;;;6.00;3.75;;;;;22.97;44.03;101231.75;5018536;28;46526;-58
2022/08/21 06:22:57;;;;;;;;;6.00;4.00;;;;;22.98;43.69;101230.81;5025489;28;45260;-59
2022/08/21 06:25:24;;;;;;;;;3.50;3.50;;;;;22.96;43.91;101227.41;5029446;28;45432;-59
2022/08/21 06:27:50;;;;;;;;;5.50;4.00;;;;;22.93;43.91;101227.56;5020385;28;45546;-56
2022/08/21 06:30:15;;;;;;;;;4.00;4.00;;;;;22.97;43.65;101227.31;5037913;28;46272;-57
2022/08/21 06:32:41;;;;;;;;;4.50;4.00;;;;;23.03;43.75;101218.16;5050952;28;45958;-58
2022/08/21 06:35:07;;;;;;;;;5.75;5.75;;;;;23.03;43.99;101218.16;5053904;28;45331;-56
2022/08/21 06:37:33;;;;;;;;;4.25;4.25;;;;;23.08;44.10;101223.16;5022430;28;45234;-59
2022/08/21 06:39:58;;;;;;;;;4.25;3.75;;;;;23.15;43.81;101220.06;5038095;28;45313;-56
2022/08/21 06:42:23;;;;;;;;;7.00;5.00;;;;;23.19;43.77;101211.94;5037633;28;45426;-56
2022/08/21 06:44:49;;;;;;;;;6.00;4.25;;;;;23.26;44.02;101215.94;5038145;28;45967;-58
2022/08/21 06:47:14;;;;;;;;;4.25;4.00;;;;;23.28;43.36;101203.47;5038045;28;45444;-58
2022/08/21 06:49:40;;;;;;;;;4.00;4.00;;;;;23.33;43.61;101193.44;5018721;28;45840;-59
2022/08/21 06:52:13;;;;;;;;;5.00;4.00;;;;;23.37;43.37;101191.50;5018051;28;45401;-55
2022/08/21 06:54:39;;;;;;;;;4.75;4.75;;;;;23.42;43.09;101194.69;5016397;28;45394;-61
2022/08/21 06:57:05;;;;;;;;;7.00;4.00;;;;;23.46;43.06;101197.03;5052371;28;45497;-59
2022/08/21 06:59:31;;;;;;;;;5.25;5.00;;;;;23.50;43.23;101194.22;5049706;28;46219;-60
2022/08/21 07:01:57;;;;;;;;;8.00;5.00;;;;;23.49;43.36;101195.16;5038076;28;45862;-58
2022/08/21 07:04:22;;;;;;;;;5.00;3.75;;;;;23.44;43.33;101198.94;5037309;28;45485;-58
2022/08/21 07:06:48;;;;;;;;;5.75;5.25;;;;;23.45;42.86;101200.63;5020465;28;47455;-57
2022/08/21 07:09:13;;;;;;;;;6.00;4.50;;;;;23.47;43.15;101196.09;5017226;28;48095;-58
2022/08/21 07:11:39;;;;;;;;;4.50;4.50;;;;;23.51;43.09;101195.91;5017539;28;45250;-58
2022/08/21 07:14:04;;;;;;;;;6.50;3.00;;;;;23.50;43.46;101196.84;5017816;28;45308;-57
2022/08/21 07:16:29;;;;;;;;;4.50;4.00;;;;;23.51;43.58;101194.09;5031658;28;45574;-55
2022/08/21 07:18:55;;;;;;;;;5.00;4.00;;;;;23.56;43.75;101201.75;5037545;28;47953;-57
2022/08/21 07:21:21;;;;;;;;;5.25;4.00;;;;;23.59;43.93;101198.94;5037309;28;45461;-57
2022/08/21 07:23:49;;;;;;;;;5.00;4.00;;;;;23.61;43.93;101195.22;5038006;28;45272;-58
2022/08/21 07:26:17;;;;;;;;;8.50;4.25;;;;;23.65;44.18;101201.16;5024707;28;45871;-57
2022/08/21 07:28:43;;;;;;;;;4.00;4.00;;;;;23.67;43.83;101199.28;5033833;28;46357;-57
2022/08/21 07:31:13;;;;;;;;;9.50;4.50;;;;;23.69;44.02;101201.84;5024736;28;45436;-56
2022/08/21 07:33:39;;;;;;;;;5.25;5.00;;;;;23.71;43.79;101200.81;5044733;28;44749;-58
2022/08/21 07:36:05;;;;;;;;;6.00;5.50;;;;;23.73;44.22;101201.56;5054102;28;45291;-58
2022/08/21 07:38:31;;;;;;;;;5.00;4.25;;;;;23.75;43.66;101197.03;5040700;28;46064;-57
2022/08/21 07:40:59;;;;;;;;;5.50;4.75;;;;;23.76;44.04;101192.56;5025894;28;45387;-55
2022/08/21 07:43:25;;;;;;;;;4.50;4.50;;;;;23.77;44.26;101195.09;5024667;28;45248;-53
2022/08/21 07:45:50;;;;;;;;;5.50;5.25;;;;;23.80;44.15;101193.22;5017223;28;45563;-55
2022/08/21 07:48:16;;;;;;;;;6.50;4.50;;;;;23.80;44.54;101194.09;5016941;28;46623;-55
2022/08/21 07:50:42;;;;;;;;;5.50;5.00;;;;;23.82;44.20;101186.88;5018501;28;45244;-55
2022/08/21 07:53:08;;;;;;;;;7.00;6.00;;;;;23.84;44.05;101192.09;5042757;28;44831;-55
2022/08/21 07:55:33;;;;;;;;;5.75;5.00;;;;;23.82;44.07;101186.03;5036793;28;45470;-58
2022/08/21 07:57:59;;;;;;;;;8.50;6.75;;;;;23.83;44.15;101193.88;5036658;28;46062;-58
2022/08/21 08:00:26;;;;;;;;;7.00;6.00;;;;;23.82;44.29;101186.03;5034388;28;45711;-60
2022/08/21 08:02:53;;;;;;;;;8.50;5.00;;;;;23.85;44.00;101186.69;5034050;28;45390;-56
2022/08/21 08:05:22;;;;;;;;;5.50;4.75;;;;;23.86;44.33;101187.53;5017127;28;45183;-56
2022/08/21 08:07:48;;;;;;;;;6.00;6.00;;;;;23.85;44.49;101183.19;5016722;28;47214;-57
2022/08/21 08:10:14;;;;;;;;;5.00;5.00;;;;;23.83;43.95;101180.63;5016676;28;45348;-57
2022/08/21 08:12:42;;;;;;;;;7.00;5.75;;;;;23.82;43.68;101186.03;5017102;28;45830;-57
2022/08/21 08:15:13;;;;;;;;;6.00;4.75;;;;;23.79;43.37;101173.84;5017872;28;45581;-56
2022/08/21 08:17:39;;;;;;;;;7.75;7.00;;;;;23.77;43.61;101173.09;5015935;28;47551;-57
2022/08/21 08:20:09;;;;;;;;;4.50;4.50;;;;;23.74;43.33;101174.16;5031866;28;45443;-56
2022/08/21 08:22:37;;;;;;;;;6.00;6.00;;;;;23.74;43.78;101182.09;5035610;28;45178;-55
2022/08/21 08:25:03;;;;;;;;;6.75;4.00;;;;;23.72;42.88;101170.75;5039935;28;45508;-54
2022/08/21 08:27:29;;;;;;;;;6.00;4.50;;;;;23.75;43.62;101170.56;5037165;28;46370;-54
2022/08/21 08:29:55;;;;;;;;;6.25;5.50;;;;;23.75;43.29;101181.16;5045894;28;45295;-55
2022/08/21 08:32:20;;;;;;;;;6.50;4.75;;;;;23.76;43.52;101174.88;5056030;28;45466;-55
2022/08/21 08:34:46;;;;;;;;;5.00;5.00;;;;;23.77;43.26;101173.09;5028383;28;45323;-56
2022/08/21 08:37:13;;;;;;;;;6.50;6.50;;;;;23.75;43.08;101167.91;5018133;28;46395;-53
2022/08/21 08:39:38;;;;;;;;;7.25;6.00;;;;;23.75;43.14;101170.56;5017547;28;45356;-54
2022/08/21 08:42:06;;;;;;;;;5.00;5.00;;;;;23.77;42.80;101168.63;5018390;28;45356;-54
2022/08/21 08:44:32;;;;;;;;;4.50;4.50;;;;;23.78;42.95;101164.22;5038125;28;45462;-56
2022/08/21 08:46:59;;;;;;;;;6.00;5.75;;;;;23.78;43.05;101165.03;5043267;28;45236;-55
2022/08/21 08:49:35;;;;;;;;;7.00;6.00;;;;;23.80;42.81;101166.75;5042653;28;45731;-55
2022/08/21 08:52:17;;;;;;;;;5.00;5.00;;;;;23.80;42.59;101166.75;5023556;28;45281;-57
2022/08/21 08:54:51;;;;;;;;;4.50;4.50;;;;;23.78;42.36;101164.22;5044152;28;44830;-57
2022/08/21 08:57:19;;;;;;;;;6.25;5.25;;;;;23.80;42.42;101157.03;5043975;28;46698;-56
2022/08/21 08:59:49;;;;;;;;;5.00;4.50;;;;;23.82;42.82;101164.84;5019898;28;45397;-56
2022/08/21 09:02:16;;;;;;;;;9.25;5.00;;;;;23.85;42.98;101162.84;5033471;28;45329;-57
2022/08/21 09:04:44;;;;;;;;;6.00;5.00;;;;;23.86;42.40;101161.06;5034223;28;45473;-56
2022/08/21 09:07:19;;;;;;;;;6.75;4.00;;;;;23.87;42.42;101154.81;5033700;28;47373;-57
2022/08/21 09:10:02;;;;;;;;;6.75;5.50;;;;;23.88;42.43;101160.03;5036050;28;46235;-58
2022/08/21 09:12:36;;;;;;;;;6.75;5.00;;;;;23.91;42.38;101143.09;5017257;28;45470;-57
2022/08/21 09:15:04;;;;;;;;;7.00;5.50;;;;;23.93;42.10;101149.97;5012489;28;45507;-58
2022/08/21 09:17:46;;;;;;;;;6.50;4.25;;;;;23.94;42.13;101148.19;5013584;28;47072;-57
2022/08/21 09:20:17;;;;;;;;;7.25;5.00;;;;;23.97;42.58;101148.03;5013488;28;45323;-57
2022/08/21 09:23:04;;;;;;;;;5.25;5.00;;;;;23.96;42.16;101135.75;5032314;28;45601;-56
2022/08/21 09:25:53;;;;;;;;;7.50;4.75;;;;;23.99;41.75;101134.69;5033913;28;45672;-57
2022/08/21 09:28:18;;;;;;;;;7.50;5.00;;;;;24.00;41.52;101129.28;5033203;28;46093;-57
2022/08/21 09:30:43;;;;;;;;;7.50;5.00;;;;;24.02;41.58;101127.38;5033306;28;48627;-57
2022/08/21 09:33:12;;;;;;;;;7.00;6.50;;;;;24.04;41.32;101128.13;5035467;28;45347;-56
2022/08/21 09:35:52;;;;;;;;;6.50;5.00;;;;;24.06;41.38;101135.97;5028461;28;45326;-58
2022/08/21 09:38:32;;;;;;;;;8.25;5.25;;;;;24.06;41.26;101130.66;5015363;28;47391;-56
2022/08/21 09:41:04;;;;;;;;;8.00;6.00;;;;;24.07;41.23;101138.53;5015966;28;45723;-57
2022/08/21 09:43:31;;;;;;;;;4.00;4.00;;;;;24.08;41.55;101134.94;5026932;28;45478;-56
2022/08/21 09:46:19;;;;;;;;;5.00;4.00;;;;;24.09;41.26;101136.59;5016028;28;45478;-57
2022/08/21 09:48:48;;;;;;;;;5.25;4.50;;;;;24.13;41.66;101136.41;5031511;28;45311;-55
2022/08/21 09:51:18;;;;;;;;;6.00;6.00;;;;;24.14;41.05;101135.47;5047567;28;45358;-55
2022/08/21 09:54:09;;;;;;;;;6.75;5.00;;;;;24.16;41.77;101137.06;5045671;28;44635;-56
2022/08/21 09:59:44;;;;;;;;;5.50;5.25;;;;;24.26;41.01;101137.31;5021368;28;45897;-54
2022/08/21 10:02:30;;;;;;;;;5.50;4.50;;;;;24.29;41.40;101125.66;5050679;28;44977;-57
2022/08/21 10:04:59;;;;;;;;;4.75;4.25;;;;;24.32;41.84;101125.44;5026322;28;45205;-56
2022/08/21 10:07:28;;;;;;;;;6.00;5.25;;;;;24.34;41.00;101110.31;5028166;28;45541;-57
2022/08/21 10:10:01;;;;;;;;;4.00;4.00;;;;;24.37;41.09;101118.03;5030298;28;46545;-57
2022/08/21 10:12:41;;;;;;;;;7.75;6.00;;;;;24.39;41.09;101110.81;5015161;28;45475;-57
2022/08/21 10:15:20;;;;;;;;;7.25;5.25;;;;;24.38;41.30;101099.41;5027888;28;45201;-57
2022/08/21 10:17:57;;;;;;;;;5.00;4.50;;;;;24.44;41.26;101108.72;5016934;28;45427;-57
2022/08/21 10:20:29;;;;;;;;;5.00;5.00;;;;;24.46;41.02;101096.22;5017790;28;45411;-57
2022/08/21 10:22:54;;;;;;;;;4.50;4.50;;;;;24.47;40.99;101100.59;5030511;28;45362;-57
2022/08/21 10:25:40;;;;;;;;;6.50;5.00;;;;;24.49;40.96;101097.81;5041381;28;45335;-57
2022/08/21 10:28:40;;;;;;;;;5.00;5.00;;;;;24.50;40.80;101086.28;5038023;28;45348;-54
2022/08/21 10:31:15;;;;;;;;;5.00;4.00;;;;;24.52;41.29;101081.72;5004290;28;46239;-57
2022/08/21 10:33:52;;;;;;;;;6.00;5.25;;;;;24.54;40.95;101074.47;5036824;28;45383;-56
2022/08/21 10:36:33;;;;;;;;;6.50;5.50;;;;;24.55;41.01;101068.22;5055930;28;44777;-55
2022/08/21 10:39:25;;;;;;;;;6.00;5.00;;;;;24.57;41.09;101079.59;5045880;28;45226;-57
2022/08/21 10:42:20;;;;;;;;;4.00;4.00;;;;;24.57;41.35;101071.63;5031442;28;46703;-57
2022/08/21 10:44:57;;;;;;;;;3.50;3.00;;;;;24.59;40.86;101067.06;5022307;28;45861;-57
2022/08/21 10:47:41;;;;;;;;;5.50;4.00;;;;;24.58;40.64;101061.91;5026552;28;45503;-56
2022/08/21 10:50:30;;;;;;;;;5.25;5.00;;;;;24.63;41.11;101055.31;5032882;28;45302;-55
2022/08/21 10:53:11;;;;;;;;;6.00;4.75;;;;;24.65;40.82;101052.56;5024119;28;45435;-57
2022/08/21 10:55:44;;;;;;;;;5.75;5.00;;;;;24.66;40.13;101049.78;5020426;28;45406;-57
2022/08/21 10:58:24;;;;;;;;;5.25;4.25;;;;;24.67;40.25;101046.19;5028100;28;45567;-59
2022/08/21 11:00:53;;;;;;;;;4.75;4.00;;;;;24.73;40.74;101060.00;5037071;28;45441;-56
2022/08/21 11:03:21;;;;;;;;;6.00;4.00;;;;;24.76;40.70;101060.63;5033970;28;46503;-56
2022/08/21 11:05:51;;;;;;;;;7.25;5.50;;;;;24.78;40.70;101055.22;5018047;28;45428;-54
2022/08/21 11:08:40;;;;;;;;;3.25;3.25;;;;;24.81;40.05;101052.34;5017863;28;45324;-54
2022/08/21 11:11:16;;;;;;;;;6.00;4.00;;;;;24.83;39.93;101047.81;5057255;28;45768;-53
2022/08/21 11:13:48;;;;;;;;;3.50;3.50;;;;;24.85;39.97;101053.84;5038076;28;45402;-55
2022/08/21 11:16:43;;;;;;;;;5.25;4.00;;;;;24.88;40.11;101058.09;5033813;28;45777;-58
2022/08/21 11:19:18;;;;;;;;;7.00;3.50;;;;;24.89;39.54;101065.91;5035721;28;45699;-58
2022/08/21 11:22:07;;;;;;;;;4.25;4.25;;;;;24.90;39.92;101072.91;5036396;28;45420;-58
2022/08/21 11:25:02;;;;;;;;;3.75;3.50;;;;;24.91;39.90;101073.78;5028688;28;48581;-57
2022/08/21 11:27:39;;;;;;;;;5.00;4.00;;;;;24.91;39.72;101074.63;5037089;28;45413;-59
2022/08/21 11:30:06;;;;;;;;;5.50;4.00;;;;;24.93;39.49;101083.31;5037548;28;45419;-50
2022/08/21 11:32:43;;;;;;;;;5.50;4.00;;;;;24.95;39.30;101086.72;5038021;28;45368;-52
2022/08/21 11:35:33;;;;;;;;;4.75;4.25;;;;;24.96;39.58;101077.81;5037343;28;45453;-56